createdAt,value
2018-02-14T00:01:42.981Z,19.00
2018-02-14T00:04:11.277Z,16.03
2018-02-14T00:06:39.545Z,13.37
2018-02-14T00:09:07.808Z,18.83
2018-02-14T00:11:36.864Z,16.80
2018-02-14T00:14:05.176Z,16.70
2018-02-14T00:16:33.481Z,15.70
2018-02-14T00:19:01.765Z,15.67
2018-02-14T00:21:30.804Z,15.13
2018-02-14T00:23:59.073Z,13.50
2018-02-14T00:26:27.368Z,12.93
2018-02-14T00:28:55.627Z,15.77
2018-02-14T00:31:23.913Z,11.53
2018-02-14T00:33:52.200Z,15.37
2018-02-14T00:36:20.496Z,15.50
2018-02-14T00:38:48.759Z,16.90
2018-02-14T00:41:17.029Z,16.33
2018-02-14T00:43:45.313Z,17.90
2018-02-14T00:46:13.610Z,13.03
2018-02-14T00:48:41.874Z,12.47
2018-02-14T00:51:10.148Z,13.33
2018-02-14T00:53:38.435Z,11.87
2018-02-14T00:56:06.725Z,9.38
2018-02-14T00:58:35.860Z,12.53
2018-02-14T01:01:04.150Z,11.40
2018-02-14T01:03:32.427Z,13.67
2018-02-14T01:06:00.730Z,11.12
2018-02-14T01:08:28.996Z,12.00
2018-02-14T01:10:57.287Z,13.27
2018-02-14T01:13:25.574Z,14.30
2018-02-14T01:15:54.612Z,13.15
2018-02-14T01:18:22.889Z,10.10
2018-02-14T01:20:51.171Z,13.68
2018-02-14T01:23:19.440Z,10.90
2018-02-14T01:25:47.722Z,16.87
2018-02-14T01:28:15.995Z,13.43
2018-02-14T01:30:44.788Z,14.30
2018-02-14T01:33:13.055Z,12.20
2018-02-14T01:35:41.340Z,8.83
2018-02-14T01:38:09.604Z,9.67
2018-02-14T01:40:37.876Z,15.98
2018-02-14T01:43:06.177Z,9.57
2018-02-14T01:45:34.449Z,11.90
2018-02-14T01:48:02.715Z,11.83
2018-02-14T01:50:39.819Z,9.70
2018-02-14T01:53:08.092Z,12.40
2018-02-14T01:55:36.373Z,14.80
2018-02-14T01:58:04.672Z,11.67
2018-02-14T02:00:32.945Z,11.12
2018-02-14T02:03:01.209Z,9.43
2018-02-14T02:05:29.497Z,10.67
2018-02-14T02:07:57.777Z,13.93
2018-02-14T02:10:26.050Z,12.50
2018-02-14T02:12:54.344Z,10.25
2018-02-14T02:15:23.384Z,11.07
2018-02-14T02:17:51.668Z,12.70
2018-02-14T02:20:19.960Z,10.60
2018-02-14T02:22:48.216Z,8.50
2018-02-14T02:25:16.484Z,11.13
2018-02-14T02:27:44.778Z,8.02
2018-02-14T02:30:13.036Z,10.43
2018-02-14T02:32:41.433Z,12.30
2018-02-14T02:35:09.713Z,10.52
2018-02-14T02:37:37.984Z,7.83
2018-02-14T02:40:23.990Z,8.30
2018-02-14T02:42:52.251Z,5.53
2018-02-14T02:45:20.533Z,8.47
2018-02-14T02:47:48.977Z,6.12
2018-02-14T02:50:17.254Z,6.60
2018-02-14T02:52:45.524Z,7.93
2018-02-14T02:55:13.813Z,5.82
2018-02-14T02:57:42.081Z,5.37
2018-02-14T03:00:10.765Z,8.03
2018-02-14T03:02:39.054Z,5.73
2018-02-14T03:05:07.316Z,6.80
2018-02-14T03:07:35.585Z,7.20
2018-02-14T03:10:03.872Z,5.63
2018-02-14T03:12:32.143Z,4.97
2018-02-14T03:15:00.412Z,5.87
2018-02-14T03:17:28.704Z,5.40
2018-02-14T03:19:56.998Z,8.93
2018-02-14T03:22:25.264Z,4.60
2018-02-14T03:24:53.584Z,4.10
2018-02-14T03:27:22.624Z,7.70
2018-02-14T03:29:50.993Z,7.50
2018-02-14T03:32:19.277Z,8.40
2018-02-14T03:34:47.539Z,6.73
2018-02-14T03:37:15.819Z,5.17
2018-02-14T03:39:44.084Z,7.00
2018-02-14T03:42:12.373Z,6.47
2018-02-14T03:44:40.650Z,9.10
2018-02-14T03:47:08.925Z,7.95
2018-02-14T03:49:37.212Z,7.50
2018-02-14T03:52:05.486Z,8.27
2018-02-14T03:54:33.764Z,5.90
2018-02-14T03:57:02.036Z,10.02
2018-02-14T03:59:30.308Z,11.80
2018-02-14T04:01:58.597Z,7.70
2018-02-14T04:04:26.872Z,9.50
2018-02-14T04:06:55.153Z,10.67
2018-02-14T04:09:23.437Z,8.10
2018-02-14T04:11:51.705Z,5.50
2018-02-14T04:14:19.981Z,4.87
2018-02-14T04:16:48.261Z,7.70
2018-02-14T04:19:16.557Z,6.60
2018-02-14T04:21:44.897Z,12.20
2018-02-14T04:24:13.313Z,7.23
2018-02-14T04:26:41.580Z,8.87
2018-02-14T04:29:09.856Z,11.23
2018-02-14T04:31:38.145Z,6.33
2018-02-14T04:34:06.422Z,10.50
2018-02-14T04:36:34.703Z,7.30
2018-02-14T04:39:02.974Z,10.07
2018-02-14T04:41:32.029Z,7.40
2018-02-14T04:44:00.304Z,9.80
2018-02-14T04:46:28.567Z,11.73
2018-02-14T04:48:56.859Z,10.70
2018-02-14T04:51:25.128Z,4.70
2018-02-14T04:53:53.404Z,5.43
2018-02-14T04:56:21.680Z,7.63
2018-02-14T04:58:49.981Z,7.07
2018-02-14T05:01:18.256Z,6.43
2018-02-14T05:03:46.529Z,6.60
2018-02-14T05:06:14.810Z,6.03
2018-02-14T05:08:43.851Z,7.20
2018-02-14T05:11:12.129Z,7.00
2018-02-14T05:13:40.407Z,8.17
2018-02-14T05:16:08.685Z,8.40
2018-02-14T05:18:36.961Z,9.00
2018-02-14T05:21:05.231Z,6.75
2018-02-14T05:23:33.507Z,7.30
2018-02-14T05:26:01.801Z,9.93
2018-02-14T05:28:30.076Z,7.50
2018-02-14T05:30:58.377Z,11.53
2018-02-14T05:33:26.666Z,7.45
2018-02-14T05:35:54.944Z,9.93
2018-02-14T05:38:23.220Z,6.70
2018-02-14T05:40:51.492Z,6.00
2018-02-14T05:43:19.765Z,8.90
2018-02-14T05:45:48.050Z,11.53
2018-02-14T05:48:16.319Z,9.50
2018-02-14T05:50:44.593Z,8.07
2018-02-14T05:53:12.913Z,6.57
2018-02-14T05:55:41.144Z,6.60
2018-02-14T05:58:09.412Z,9.50
2018-02-14T06:00:37.762Z,10.52
2018-02-14T06:03:06.028Z,13.87
2018-02-14T06:05:34.295Z,5.37
2018-02-14T06:08:03.348Z,7.07
2018-02-14T06:10:31.620Z,10.30
2018-02-14T06:12:59.902Z,7.17
2018-02-14T06:15:28.169Z,7.23
2018-02-14T06:17:57.207Z,8.10
2018-02-14T06:20:26.256Z,8.60
2018-02-14T06:22:54.614Z,8.00
2018-02-14T06:25:22.877Z,7.70
2018-02-14T06:27:51.216Z,7.63
2018-02-14T06:30:20.268Z,6.80
2018-02-14T06:32:48.536Z,9.20
2018-02-14T06:35:16.812Z,5.90
2018-02-14T06:37:45.098Z,6.00
2018-02-14T06:40:13.354Z,7.70
2018-02-14T06:42:41.639Z,7.87
2018-02-14T06:45:09.909Z,7.40
2018-02-14T06:47:38.207Z,10.37
2018-02-14T06:50:06.491Z,7.57
2018-02-14T06:52:34.750Z,6.32
2018-02-14T06:55:03.038Z,9.30
2018-02-14T06:57:31.306Z,8.13
2018-02-14T06:59:59.603Z,7.40
2018-02-14T07:02:27.912Z,6.53
2018-02-14T07:04:56.944Z,11.30
2018-02-14T07:07:25.225Z,7.03
2018-02-14T07:09:53.496Z,8.60
2018-02-14T07:12:21.797Z,7.90
2018-02-14T07:14:50.096Z,7.53
2018-02-14T07:17:18.356Z,7.70
2018-02-14T07:19:46.643Z,7.28
2018-02-14T07:22:14.910Z,9.90
2018-02-14T07:24:43.198Z,12.47
2018-02-14T07:27:11.519Z,7.60
2018-02-14T07:29:39.793Z,9.93
2018-02-14T07:32:08.053Z,7.23
2018-02-14T07:34:36.324Z,8.53
2018-02-14T07:37:04.596Z,8.00
2018-02-14T07:39:33.646Z,7.03
2018-02-14T07:42:01.931Z,10.80
2018-02-14T07:44:30.193Z,8.23
2018-02-14T07:46:58.513Z,10.40
2018-02-14T07:49:27.548Z,9.25
2018-02-14T07:51:55.813Z,6.87
2018-02-14T07:54:24.104Z,9.57
2018-02-14T07:56:52.372Z,8.43
2018-02-14T07:59:20.641Z,8.73
2018-02-14T08:01:48.932Z,13.10
2018-02-14T08:04:17.200Z,10.23
2018-02-14T08:06:45.490Z,12.60
2018-02-14T08:09:13.775Z,12.17
2018-02-14T08:11:42.048Z,10.97
2018-02-14T08:14:10.333Z,9.37
2018-02-14T08:16:38.612Z,18.00
2018-02-14T08:19:06.906Z,11.70
2018-02-14T08:21:35.944Z,11.03
2018-02-14T08:24:04.212Z,15.77
2018-02-14T08:26:32.506Z,10.70
2018-02-14T08:29:01.949Z,14.04
2018-02-14T08:31:30.220Z,13.47
2018-02-14T08:33:58.509Z,10.60
2018-02-14T08:36:27.547Z,14.30
2018-02-14T08:38:56.761Z,10.30
2018-02-14T08:41:25.045Z,9.07
2018-02-14T08:43:53.328Z,11.20
2018-02-14T08:46:21.595Z,12.90
2018-02-14T08:48:49.869Z,15.00
2018-02-14T08:51:18.152Z,9.60
2018-02-14T08:53:46.420Z,10.63
2018-02-14T08:56:14.716Z,11.35
2018-02-14T08:58:42.998Z,11.80
2018-02-14T09:01:11.263Z,10.90
2018-02-14T09:03:39.544Z,10.97
2018-02-14T09:06:07.820Z,10.70
2018-02-14T09:08:36.141Z,15.10
2018-02-14T09:11:04.428Z,14.90
2018-02-14T09:16:00.980Z,15.63
2018-02-14T09:18:29.271Z,31.67
2018-02-14T09:20:58.316Z,15.73
2018-02-14T09:23:27.364Z,13.40
2018-02-14T09:25:55.644Z,14.33
2018-02-14T09:28:23.908Z,13.93
2018-02-14T09:30:52.195Z,12.47
2018-02-14T09:33:20.478Z,12.93
2018-02-14T09:35:49.555Z,14.57
2018-02-14T09:38:17.843Z,14.18
2018-02-14T09:40:46.114Z,14.87
2018-02-14T09:43:14.395Z,12.77
2018-02-14T09:45:42.668Z,12.70
2018-02-14T09:48:10.957Z,12.88
2018-02-14T09:50:39.244Z,13.43
2018-02-14T09:53:07.516Z,15.03
2018-02-14T09:55:35.824Z,14.00
2018-02-14T09:58:04.104Z,16.50
2018-02-14T10:00:33.153Z,14.13
2018-02-14T10:03:01.430Z,17.40
2018-02-14T10:05:29.708Z,10.37
2018-02-14T10:07:57.985Z,14.30
2018-02-14T10:10:26.253Z,14.53
2018-02-14T10:12:54.529Z,16.30
2018-02-14T10:15:22.823Z,14.63
2018-02-14T10:17:51.096Z,16.13
2018-02-14T10:20:19.359Z,13.87
2018-02-14T10:22:47.646Z,14.17
2018-02-14T10:25:15.912Z,13.77
2018-02-14T10:27:44.189Z,16.37
2018-02-14T10:30:12.450Z,13.83
2018-02-14T10:32:40.708Z,12.87
2018-02-14T10:35:08.988Z,10.40
2018-02-14T10:37:37.258Z,13.30
2018-02-14T10:40:05.511Z,12.40
2018-02-14T10:42:33.784Z,9.73
2018-02-14T10:45:02.063Z,14.68
2018-02-14T10:47:30.332Z,14.57
2018-02-14T10:49:59.393Z,14.67
2018-02-14T10:52:27.654Z,10.10
2018-02-14T10:54:55.932Z,12.18
2018-02-14T10:57:24.222Z,11.00
2018-02-14T10:59:52.487Z,12.70
2018-02-14T11:02:20.740Z,8.85
2018-02-14T11:04:54.432Z,12.83
2018-02-14T11:07:22.701Z,11.93
2018-02-14T11:09:50.956Z,13.67
2018-02-14T11:12:20.001Z,9.43
2018-02-14T11:14:48.260Z,16.93
2018-02-14T11:17:16.526Z,10.20
2018-02-14T11:19:44.815Z,13.00
2018-02-14T11:22:13.095Z,11.23
2018-02-14T11:24:41.356Z,11.53
2018-02-14T11:27:09.633Z,12.45
2018-02-14T11:29:37.900Z,10.90
2018-02-14T11:32:06.160Z,8.93
2018-02-14T11:34:34.433Z,8.77
2018-02-14T11:37:04.700Z,12.00
2018-02-14T11:39:32.956Z,10.30
2018-02-14T11:42:01.238Z,10.00
2018-02-14T11:44:29.488Z,8.53
2018-02-14T11:46:57.752Z,10.27
2018-02-14T11:49:26.804Z,10.17
2018-02-14T11:51:55.060Z,14.37
2018-02-14T11:54:23.329Z,10.53
2018-02-14T11:56:51.611Z,13.30
2018-02-14T11:59:19.877Z,16.05
2018-02-14T12:01:48.147Z,10.30
2018-02-14T12:04:16.404Z,8.80
2018-02-14T12:06:45.448Z,8.50
2018-02-14T12:09:13.708Z,10.67
2018-02-14T12:11:41.993Z,11.27
2018-02-14T12:14:10.263Z,9.27
2018-02-14T12:16:38.529Z,8.13
2018-02-14T12:19:06.792Z,12.77
2018-02-14T12:21:35.073Z,9.07
2018-02-14T12:24:03.345Z,8.23
2018-02-14T12:26:31.614Z,8.52
2018-02-14T12:28:59.893Z,9.53
2018-02-14T12:31:28.152Z,9.07
2018-02-14T12:33:57.171Z,9.93
2018-02-14T12:36:25.449Z,7.30
2018-02-14T12:38:55.241Z,7.47
2018-02-14T12:41:24.277Z,7.90
2018-02-14T12:43:52.536Z,10.90
2018-02-14T12:46:20.808Z,6.60
2018-02-14T12:48:49.077Z,5.13
2018-02-14T12:51:17.335Z,8.60
2018-02-14T12:53:46.388Z,6.97
2018-02-14T12:56:14.640Z,4.87
2018-02-14T12:58:42.915Z,9.03
2018-02-14T13:01:11.177Z,6.30
2018-02-14T13:03:39.454Z,8.03
2018-02-14T13:06:07.713Z,6.30
2018-02-14T13:08:35.986Z,6.27
2018-02-14T13:11:04.248Z,6.83
2018-02-14T13:13:33.292Z,6.07
2018-02-14T13:16:01.557Z,6.03
2018-02-14T13:18:29.816Z,7.62
2018-02-14T13:20:58.120Z,8.70
2018-02-14T13:23:26.393Z,11.57
2018-02-14T13:25:54.692Z,9.27
2018-02-14T13:28:22.956Z,8.77
2018-02-14T13:30:51.235Z,6.37
2018-02-14T13:33:19.517Z,6.23
2018-02-14T13:35:47.783Z,4.10
2018-02-14T13:38:16.073Z,4.60
2018-02-14T13:40:44.348Z,5.80
2018-02-14T13:43:12.637Z,4.40
2018-02-14T13:45:40.900Z,4.87
2018-02-14T13:48:09.172Z,3.90
2018-02-14T13:50:37.462Z,4.97
2018-02-14T13:53:05.724Z,3.77
2018-02-14T13:55:33.981Z,6.33
2018-02-14T13:58:02.345Z,7.43
2018-02-14T14:00:30.611Z,3.80
2018-02-14T14:02:58.880Z,5.90
2018-02-14T14:05:27.161Z,6.50
2018-02-14T14:07:55.429Z,4.63
2018-02-14T14:10:23.705Z,4.35
2018-02-14T14:12:51.988Z,4.23
2018-02-14T14:15:20.268Z,3.58
2018-02-14T14:17:48.546Z,5.53
2018-02-14T14:20:16.832Z,4.63
2018-02-14T14:22:45.109Z,4.20
2018-02-14T14:25:13.385Z,4.63
2018-02-14T14:27:41.664Z,3.40
2018-02-14T14:30:09.960Z,4.03
2018-02-14T14:32:38.231Z,3.67
2018-02-14T14:35:06.684Z,2.77
2018-02-14T14:37:34.951Z,3.62
2018-02-14T14:40:03.236Z,4.17
2018-02-14T14:42:31.522Z,6.13
2018-02-14T14:44:59.901Z,5.40
2018-02-14T14:47:28.183Z,3.28
2018-02-14T14:49:56.472Z,4.60
2018-02-14T14:52:24.758Z,4.00
2018-02-14T14:54:53.057Z,4.20
2018-02-14T14:57:21.308Z,5.83
2018-02-14T14:59:49.645Z,4.00
2018-02-14T15:02:18.033Z,4.53
2018-02-14T15:04:46.358Z,5.90
2018-02-14T15:07:14.604Z,4.27
2018-02-14T15:09:42.964Z,5.10
2018-02-14T15:12:11.252Z,4.33
2018-02-14T15:14:39.613Z,5.87
2018-02-14T15:17:07.901Z,7.73
2018-02-14T15:19:36.211Z,4.85
2018-02-14T15:22:04.589Z,3.83
2018-02-14T15:24:32.833Z,4.70
2018-02-14T15:27:01.127Z,4.03
2018-02-14T15:29:29.393Z,5.47
2018-02-14T15:31:57.857Z,5.10
2018-02-14T15:34:26.149Z,4.20
2018-02-14T15:36:54.440Z,6.00
2018-02-14T15:39:22.829Z,4.35
2018-02-14T15:41:51.125Z,5.10
2018-02-14T15:44:20.262Z,5.57
2018-02-14T15:46:48.538Z,3.73
2018-02-14T15:49:16.911Z,4.65
2018-02-14T15:51:45.184Z,4.83
2018-02-14T15:54:13.570Z,5.77
2018-02-14T15:56:41.993Z,5.33
2018-02-14T15:59:10.287Z,6.47
2018-02-14T16:01:39.314Z,5.32
2018-02-14T16:04:07.697Z,5.73
2018-02-14T16:06:35.955Z,5.33
2018-02-14T16:09:04.233Z,8.43
2018-02-14T16:11:32.531Z,9.35
2018-02-14T16:14:00.796Z,7.70
2018-02-14T16:16:29.056Z,4.60
2018-02-14T16:18:57.336Z,8.33
2018-02-14T16:21:25.596Z,8.00
2018-02-14T16:23:54.720Z,8.00
2018-02-14T16:26:23.019Z,5.93
2018-02-14T16:28:51.390Z,10.23
2018-02-14T16:31:19.639Z,9.50
2018-02-14T16:33:47.937Z,10.40
2018-02-14T16:36:16.200Z,9.97
2018-02-14T16:38:44.468Z,10.00
2018-02-14T16:41:12.752Z,10.10
2018-02-14T16:43:41.051Z,8.18
2018-02-14T16:46:09.316Z,9.30
2018-02-14T16:48:37.620Z,7.70
2018-02-14T16:51:05.883Z,8.55
2018-02-14T16:53:34.145Z,11.33
2018-02-14T16:56:02.448Z,10.90
2018-02-14T16:58:30.738Z,14.80
2018-02-14T17:00:59.013Z,36.53
2018-02-14T17:03:27.289Z,31.27
2018-02-14T17:05:55.618Z,46.70
2018-02-14T17:08:23.892Z,33.67
2018-02-14T17:10:52.279Z,24.00
2018-02-14T17:13:20.544Z,12.17
2018-02-14T17:15:48.824Z,12.00
2018-02-14T17:18:17.089Z,9.20
2018-02-14T17:20:45.359Z,10.10
2018-02-14T17:23:13.795Z,10.03
2018-02-14T17:25:42.842Z,14.07
2018-02-14T17:28:11.102Z,13.40
2018-02-14T17:30:39.382Z,13.03
2018-02-14T17:33:07.633Z,9.90
2018-02-14T17:35:36.661Z,12.50
2018-02-14T17:38:04.939Z,10.60
2018-02-14T17:40:33.275Z,13.77
2018-02-14T17:43:01.709Z,15.90
2018-02-14T17:45:30.001Z,11.50
2018-02-14T17:47:58.343Z,12.03
2018-02-14T17:50:26.825Z,12.90
2018-02-14T17:52:55.108Z,12.53
2018-02-14T17:55:23.441Z,14.23
2018-02-14T17:57:52.647Z,13.13
2018-02-14T18:00:21.899Z,10.90
2018-02-14T18:02:51.376Z,17.00
2018-02-14T18:05:20.116Z,13.77
2018-02-14T18:07:49.683Z,11.37
2018-02-14T18:10:19.587Z,10.50
2018-02-14T18:12:49.171Z,12.60
2018-02-14T18:15:17.994Z,9.87
2018-02-14T18:17:47.257Z,13.60
2018-02-14T18:20:16.605Z,8.07
2018-02-14T18:22:46.587Z,9.70
2018-02-14T18:25:16.459Z,10.80
2018-02-14T18:27:46.276Z,9.35
2018-02-14T18:30:16.431Z,11.10
2018-02-14T18:32:46.675Z,11.25
2018-02-14T18:35:16.694Z,11.07
2018-02-14T18:37:46.632Z,10.30
2018-02-14T18:40:16.600Z,10.90
2018-02-14T18:42:46.450Z,12.50
2018-02-14T18:45:16.221Z,8.07
2018-02-14T18:47:47.633Z,11.52
2018-02-14T18:50:17.496Z,8.97
2018-02-14T18:52:48.371Z,12.80
2018-02-14T18:55:18.238Z,11.50
2018-02-14T18:57:49.218Z,11.77
2018-02-14T19:00:20.019Z,10.80
2018-02-14T19:02:51.201Z,12.10
2018-02-14T19:05:21.428Z,13.57
2018-02-14T19:07:51.632Z,12.57
2018-02-14T19:10:21.521Z,12.60
2018-02-14T19:12:52.201Z,12.20
2018-02-14T19:15:21.975Z,11.70
2018-02-14T19:17:52.109Z,9.83
2018-02-14T19:20:23.236Z,13.13
2018-02-14T19:22:53.029Z,12.67
2018-02-14T19:25:23.846Z,14.53
2018-02-14T19:27:53.826Z,26.60
2018-02-14T19:30:23.753Z,20.20
2018-02-14T19:32:53.700Z,21.83
2018-02-14T19:35:24.561Z,15.83
2018-02-14T19:37:54.503Z,10.90
2018-02-14T19:40:24.556Z,10.23
2018-02-14T19:42:54.559Z,13.98
2018-02-14T19:45:25.560Z,8.73
2018-02-14T19:47:55.805Z,10.38
2018-02-14T19:50:25.172Z,11.40
2018-02-14T19:52:56.024Z,10.40
2018-02-14T19:55:25.861Z,11.47
2018-02-14T19:57:55.420Z,11.10
2018-02-14T20:00:26.386Z,9.50
2018-02-14T20:02:56.495Z,10.00
2018-02-14T20:05:26.232Z,9.10
2018-02-14T20:07:56.228Z,10.75
2018-02-14T20:10:26.150Z,11.80
2018-02-14T20:12:55.597Z,8.00
2018-02-14T20:15:25.589Z,12.07
2018-02-14T20:17:55.219Z,8.70
2018-02-14T20:20:24.699Z,8.87
2018-02-14T20:22:54.183Z,8.90
2018-02-14T20:25:23.651Z,11.80
2018-02-14T20:27:54.813Z,12.40
2018-02-14T20:30:24.159Z,7.77
2018-02-14T20:32:53.609Z,7.07
2018-02-14T20:35:23.129Z,7.60
2018-02-14T20:37:52.409Z,13.32
2018-02-14T20:40:21.774Z,11.60
2018-02-14T20:42:51.318Z,12.83
2018-02-14T20:45:20.630Z,12.90
2018-02-14T20:47:50.907Z,13.90
2018-02-14T20:50:20.281Z,14.37
2018-02-14T20:52:49.709Z,12.90
2018-02-14T20:55:19.153Z,13.77
2018-02-14T20:57:49.264Z,15.05
2018-02-14T21:00:19.486Z,13.20
2018-02-14T21:02:48.801Z,14.48
2018-02-14T21:05:18.144Z,13.97
2018-02-14T21:07:47.548Z,13.75
2018-02-14T21:10:17.100Z,17.10
2018-02-14T21:12:47.286Z,14.03
2018-02-14T21:15:16.716Z,13.20
2018-02-14T21:17:47.035Z,15.93
2018-02-14T21:20:17.132Z,20.33
2018-02-14T21:22:46.821Z,15.67
2018-02-14T21:25:16.194Z,16.90
2018-02-14T21:27:45.500Z,11.80
2018-02-14T21:30:14.916Z,10.33
2018-02-14T21:32:44.306Z,11.27
2018-02-14T21:35:13.771Z,10.60
2018-02-14T21:37:43.948Z,9.95
2018-02-14T21:40:13.256Z,11.50
2018-02-14T21:42:42.528Z,8.10
2018-02-14T21:45:11.970Z,12.33
2018-02-14T21:47:41.258Z,10.40
2018-02-14T21:50:10.645Z,9.53
2018-02-14T21:52:40.070Z,16.70
2018-02-14T21:55:09.403Z,13.23
2018-02-14T21:57:39.927Z,8.94
2018-02-14T22:00:09.951Z,9.47
2018-02-14T22:02:40.641Z,9.87
2018-02-14T22:05:10.420Z,11.30
2018-02-14T22:07:40.096Z,11.00
2018-02-14T22:10:10.690Z,11.67
2018-02-14T22:12:40.390Z,10.10
2018-02-14T22:15:08.861Z,8.17
2018-02-14T22:17:37.879Z,10.85
2018-02-14T22:20:06.171Z,9.90
2018-02-14T22:22:35.238Z,9.93
2018-02-14T22:25:03.533Z,8.27
2018-02-14T22:27:32.621Z,10.15
2018-02-14T22:30:00.897Z,10.47
2018-02-14T22:32:29.173Z,13.27
2018-02-14T22:34:57.469Z,10.40
2018-02-14T22:37:26.501Z,14.77
2018-02-14T22:39:54.771Z,13.00
2018-02-14T22:42:23.060Z,15.50
2018-02-14T22:44:51.388Z,17.80
2018-02-14T22:47:20.433Z,14.53
2018-02-14T22:49:48.723Z,18.00
2018-02-14T22:52:17.849Z,15.83
2018-02-14T22:54:46.891Z,17.00
2018-02-14T22:57:15.200Z,14.20
2018-02-14T22:59:43.476Z,12.18
2018-02-14T23:02:11.740Z,16.67
2018-02-14T23:04:40.042Z,12.90
2018-02-14T23:07:09.075Z,13.53
2018-02-14T23:09:38.605Z,14.43
2018-02-14T23:12:06.896Z,13.77
2018-02-14T23:14:35.175Z,13.10
2018-02-14T23:17:03.439Z,12.87
2018-02-14T23:19:31.733Z,13.17
2018-02-14T23:22:00.018Z,13.27
2018-02-14T23:24:29.056Z,15.00
2018-02-14T23:26:57.348Z,12.63
2018-02-14T23:29:25.620Z,14.07
2018-02-14T23:31:53.892Z,14.13
2018-02-14T23:34:22.173Z,15.67
2018-02-14T23:36:50.469Z,14.17
2018-02-14T23:39:18.740Z,14.80
2018-02-14T23:41:47.020Z,14.70
2018-02-14T23:44:15.303Z,16.03
2018-02-14T23:46:43.574Z,13.83
2018-02-14T23:49:11.852Z,17.02
2018-02-14T23:51:40.850Z,13.40
2018-02-14T23:54:09.120Z,15.47
2018-02-14T23:56:37.408Z,14.40
2018-02-14T23:59:05.689Z,15.00
